Time;durP1;ratioP1;P1;durP2;ratioP2;P2;SDS_P1;SDS_P2;PMS_P1;PMS_P2;Temp;Humidity;BMP_temperature;BMP_pressure;BME280_temperature;BME280_humidity;BME280_pressure;Samples;Min_cycle;Max_cycle;Signal;HPM_P1;HPM_P2
2023/06/15 00:02:04;;;;;;;4.35;2.08;;;;;;;14.82;98.13;99868.84;6374298;27;20076;-69
2023/06/15 00:05:07;;;;;;;7.95;2.58;;;;;;;14.79;98.33;99868.28;6374097;27;20490;-69
2023/06/15 00:08:08;;;;;;;4.32;2.50;;;;;;;14.80;97.61;99870.78;6375345;27;20047;-69
2023/06/15 00:11:09;;;;;;;3.63;2.10;;;;;;;14.78;97.78;99866.63;6373941;27;20054;-70
2023/06/15 00:14:09;;;;;;;4.18;2.35;;;;;;;14.78;97.36;99872.69;6373819;27;20046;-69
2023/06/15 00:17:11;;;;;;;3.45;1.80;;;;;;;14.73;98.07;99867.00;6375559;27;20055;-70
2023/06/15 00:20:12;;;;;;;2.95;2.10;;;;;;;14.76;98.45;99871.16;6375250;27;20051;-69
2023/06/15 00:23:13;;;;;;;3.42;2.08;;;;;;;14.67;100.00;99870.94;6375298;27;20054;-69
2023/06/15 00:26:16;;;;;;;3.42;2.08;;;;;;;14.60;100.00;99875.03;6375180;27;20047;-69
2023/06/15 00:29:17;;;;;;;3.30;2.05;;;;;;;14.56;100.00;99867.50;6375026;27;20077;-69
2023/06/15 00:32:18;;;;;;;2.78;2.22;;;;;;;14.57;99.23;99870.03;6373532;27;20470;-68
2023/06/15 00:35:19;;;;;;;5.20;2.25;;;;;;;14.60;99.69;99866.31;6374464;27;20055;-69
2023/06/15 00:38:20;;;;;;;3.47;2.00;;;;;;;14.64;98.60;99870.34;6373742;27;20058;-68
2023/06/15 00:41:23;;;;;;;2.65;1.95;;;;;;;14.57;99.67;99861.31;6374432;27;20079;-69
2023/06/15 00:44:24;;;;;;;3.03;1.98;;;;;;;14.56;99.54;99859.63;6373041;27;20047;-68
2023/06/15 00:47:25;;;;;;;3.28;2.20;;;;;;;14.53;100.00;99855.44;6374050;27;20425;-69
2023/06/15 00:50:29;;;;;;;3.50;1.95;;;;;;;14.48;100.00;99863.69;6373859;27;20478;-69
2023/06/15 00:53:30;;;;;;;3.53;2.13;;;;;;;14.47;100.00;99866.44;6374024;27;20083;-69
2023/06/15 00:56:31;;;;;;;3.60;2.05;;;;;;;14.48;100.00;99876.00;6372810;27;20487;-69
2023/06/15 00:59:33;;;;;;;2.17;1.80;;;;;;;14.45;100.00;99865.72;6373654;27;20083;-72
2023/06/15 01:02:34;;;;;;;1.90;1.55;;;;;;;14.41;100.00;99865.16;6372381;27;20487;-71
2023/06/15 01:05:35;;;;;;;4.18;2.00;;;;;;;14.37;100.00;99861.09;6373790;27;20395;-70
2023/06/15 01:08:36;;;;;;;2.63;1.60;;;;;;;14.36;100.00;99855.97;6373867;27;20055;-70
2023/06/15 01:11:38;;;;;;;3.13;2.00;;;;;;;14.39;100.00;99855.72;6373783;27;20054;-70
2023/06/15 01:14:42;;;;;;;;;;;;;;;14.38;100.00;99859.31;6372725;27;20453;-70
2023/06/15 01:17:45;;;;;;;4.32;1.98;;;;;;;14.39;100.00;99850.47;6373510;27;19936;-70
2023/06/15 01:20:48;;;;;;;3.40;2.00;;;;;;;14.36;100.00;99848.94;6373729;27;20420;-70
2023/06/15 01:24:18;;;;;;;2.72;1.95;;;;;;;14.39;100.00;99853.09;6372428;27;20081;-70
2023/06/15 01:27:21;;;;;;;3.25;1.90;;;;;;;14.36;100.00;99846.31;6361159;27;20051;-71
2023/06/15 01:30:25;;;;;;;3.67;2.45;;;;;;;14.30;100.00;99847.63;6372131;27;20395;-70
2023/06/15 01:33:26;;;;;;;2.00;1.67;;;;;;;14.24;100.00;99849.91;6371737;27;20039;-70
2023/06/15 01:36:26;;;;;;;5.30;2.13;;;;;;;14.19;100.00;99849.44;6373310;27;20422;-70
2023/06/15 01:39:28;;;;;;;2.53;1.88;;;;;;;14.18;100.00;99848.59;6373202;27;20051;-71
2023/06/15 01:42:28;;;;;;;3.20;1.92;;;;;;;14.16;100.00;99850.50;6372104;27;20043;-70
2023/06/15 01:45:30;;;;;;;2.30;1.95;;;;;;;14.12;100.00;99849.06;6371965;27;20043;-70
2023/06/15 01:48:32;;;;;;;4.63;2.40;;;;;;;14.09;100.00;99857.22;6372915;27;20066;-70
2023/06/15 01:51:33;;;;;;;2.60;2.03;;;;;;;13.99;100.00;99854.47;6372037;27;20051;-69
2023/06/15 01:54:38;;;;;;;4.53;2.28;;;;;;;13.99;100.00;99849.22;6372970;27;20082;-71
2023/06/15 01:57:40;;;;;;;2.83;2.05;;;;;;;14.03;100.00;99855.88;6372801;27;20544;-69
2023/06/15 02:00:46;;;;;;;3.08;2.17;;;;;;;13.96;100.00;99846.84;6372751;27;20501;-70
2023/06/15 02:03:46;;;;;;;4.97;2.35;;;;;;;13.99;100.00;99841.34;6372685;27;20059;-70
2023/06/15 02:06:47;;;;;;;5.05;2.00;;;;;;;14.00;100.00;99844.78;6372764;27;20180;-71
2023/06/15 02:09:48;;;;;;;3.55;2.38;;;;;;;13.97;100.00;99845.06;6371849;28;20051;-70
2023/06/15 02:12:48;;;;;;;2.45;1.80;;;;;;;13.96;100.00;99841.59;6371544;28;20051;-70
2023/06/15 02:15:49;;;;;;;5.15;2.30;;;;;;;13.90;100.00;99842.91;6372827;27;20094;-70
2023/06/15 02:18:51;;;;;;;3.88;2.10;;;;;;;13.98;100.00;99847.56;6371101;28;20047;-70
2023/06/15 02:21:51;;;;;;;4.37;2.20;;;;;;;13.91;100.00;99844.56;6371081;28;20051;-70
2023/06/15 02:24:52;;;;;;;2.60;1.98;;;;;;;13.90;100.00;99848.16;6371471;28;20135;-71
2023/06/15 02:27:56;;;;;;;2.70;2.13;;;;;;;13.86;100.00;99849.34;6371551;28;20047;-71
2023/06/15 02:30:57;;;;;;;2.53;1.67;;;;;;;13.83;100.00;99846.13;6371469;28;20427;-71
2023/06/15 02:33:58;;;;;;;2.00;1.70;;;;;;;13.79;100.00;99858.63;6372441;27;20059;-71
2023/06/15 02:36:59;;;;;;;3.13;2.17;;;;;;;13.76;100.00;99851.00;6372815;27;20079;-71
2023/06/15 02:40:00;;;;;;;5.60;2.10;;;;;;;13.76;100.00;99851.00;6371302;28;20054;-71
2023/06/15 02:43:01;;;;;;;3.45;2.00;;;;;;;13.78;100.00;99853.53;6371511;28;20446;-71
2023/06/15 02:46:01;;;;;;;4.30;2.30;;;;;;;13.87;100.00;99860.66;6372468;27;20062;-71
2023/06/15 02:49:02;;;;;;;3.90;2.40;;;;;;;13.87;100.00;99856.25;6371554;28;20051;-70
2023/06/15 02:52:03;;;;;;;2.85;2.25;;;;;;;13.85;100.00;99852.91;6372532;27;20394;-71
2023/06/15 02:55:05;;;;;;;3.65;2.05;;;;;;;13.88;100.00;99852.69;6370924;28;20505;-71
2023/06/15 02:58:07;;;;;;;2.47;1.60;;;;;;;13.84;100.00;99861.75;6371391;28;20058;-71
2023/06/15 03:01:07;;;;;;;3.90;2.22;;;;;;;13.83;100.00;99856.59;6372481;27;20502;-71
2023/06/15 03:04:14;;;;;;;3.22;1.75;;;;;;;13.81;100.00;99856.72;6375743;27;20055;-71
2023/06/15 03:07:20;;;;;;;4.60;2.30;;;;;;;13.91;100.00;99852.44;6376726;27;20058;-70
2023/06/15 03:10:21;;;;;;;2.40;1.65;;;;;;;13.95;100.00;99855.66;6375762;27;20055;-71
2023/06/15 03:13:24;;;;;;;2.67;1.80;;;;;;;13.91;100.00;99859.47;6375460;27;20043;-71
2023/06/15 03:16:25;;;;;;;3.05;1.83;;;;;;;13.93;100.00;99848.88;6375531;27;20047;-70
2023/06/15 03:19:25;;;;;;;4.10;2.13;;;;;;;13.88;100.00;99852.69;6375408;27;20051;-70
2023/06/15 03:22:26;;;;;;;2.13;1.58;;;;;;;14.02;100.00;99858.63;6376533;27;20051;-71
2023/06/15 03:25:29;;;;;;;3.85;2.00;;;;;;;14.08;100.00;99859.00;6375134;27;20483;-71
2023/06/15 03:28:30;;;;;;;4.85;2.20;;;;;;;14.05;100.00;99856.59;6376260;27;20133;-70
2023/06/15 03:31:33;;;;;;;2.38;1.67;;;;;;;14.15;100.00;99861.97;6374988;27;20134;-70
2023/06/15 03:34:37;;;;;;;3.47;1.90;;;;;;;14.15;100.00;99867.22;6375778;27;20039;-71
2023/06/15 03:37:40;;;;;;;2.70;2.10;;;;;;;14.18;100.00;99868.75;6374598;27;20487;-70
2023/06/15 03:40:44;;;;;;;3.08;1.92;;;;;;;14.19;100.00;99873.06;6375723;27;20104;-70
2023/06/15 03:43:44;;;;;;;2.33;1.67;;;;;;;14.31;100.00;99864.22;6374749;27;20051;-70
2023/06/15 03:46:48;;;;;;;3.35;1.88;;;;;;;14.27;100.00;99868.88;6375786;27;20051;-71
2023/06/15 03:49:48;;;;;;;3.55;2.05;;;;;;;14.38;100.00;99875.88;6374913;27;20058;-71
2023/06/15 03:52:49;;;;;;;3.83;2.13;;;;;;;14.38;100.00;99875.88;6374630;27;20084;-71
2023/06/15 03:55:50;;;;;;;2.38;1.92;;;;;;;14.43;100.00;99871.13;6375660;27;20053;-71
2023/06/15 03:58:51;;;;;;;3.80;1.83;;;;;;;14.47;100.00;99871.69;6374980;27;20456;-70
2023/06/15 04:01:52;;;;;;;3.00;1.75;;;;;;;14.50;100.00;99872.28;6373862;27;20051;-71
2023/06/15 04:04:54;;;;;;;2.72;1.83;;;;;;;14.61;100.00;99881.94;6374141;27;20487;-70
2023/06/15 04:07:55;;;;;;;2.00;1.73;;;;;;;14.69;100.00;99879.53;6374297;27;20054;-71
2023/06/15 04:10:56;;;;;;;2.45;1.70;;;;;;;14.80;100.00;99880.44;6374371;27;20051;-71
2023/06/15 04:14:00;;;;;;;2.47;1.77;;;;;;;14.95;100.00;99883.63;6375099;27;20066;-70
2023/06/15 04:17:00;;;;;;;2.55;2.00;;;;;;;15.02;100.00;99880.38;6375316;27;20478;-71
2023/06/15 04:20:05;;;;;;;2.40;1.83;;;;;;;15.00;100.00;99876.19;6373301;27;20047;-70
2023/06/15 04:23:05;;;;;;;5.03;2.20;;;;;;;15.05;100.00;99877.50;6374215;27;20138;-70
2023/06/15 04:26:08;;;;;;;3.40;1.80;;;;;;;15.14;100.00;99873.28;6374863;27;20053;-70
2023/06/15 04:29:09;;;;;;;4.68;2.10;;;;;;;15.28;100.00;99875.59;6374830;27;20086;-70
2023/06/15 04:32:10;;;;;;;2.50;1.73;;;;;;;15.47;100.00;99874.88;6373873;27;20480;-71
2023/06/15 04:35:16;;;;;;;3.60;2.13;;;;;;;15.44;100.00;99872.50;6373425;27;20082;-71
2023/06/15 04:38:17;;;;;;;4.40;2.05;;;;;;;15.56;100.00;99883.75;6374678;27;20501;-70
2023/06/15 04:41:24;;;;;;;4.45;2.05;;;;;;;15.66;100.00;99882.03;6374601;27;20055;-70
2023/06/15 04:44:27;;;;;;;4.28;2.20;;;;;;;15.86;100.00;99888.25;6373469;27;20092;-70
2023/06/15 04:47:28;;;;;;;5.80;2.38;;;;;;;15.94;100.00;99889.38;6374491;27;20081;-71
2023/06/15 04:50:32;;;;;;;5.60;2.60;;;;;;;16.03;99.06;99886.78;6374240;27;20043;-70
2023/06/15 04:53:32;;;;;;;5.28;2.35;;;;;;;16.19;99.26;99882.84;6373635;27;20047;-70
2023/06/15 04:56:33;;;;;;;3.28;2.45;;;;;;;16.26;100.00;99882.16;6372419;27;20140;-71
2023/06/15 04:59:34;;;;;;;4.88;2.33;;;;;;;16.42;98.46;99886.91;6372216;27;20104;-70
2023/06/15 05:02:35;;;;;;;4.07;2.73;;;;;;;16.51;96.65;99890.53;6373661;27;20054;-70
2023/06/15 05:05:36;;;;;;;3.90;2.40;;;;;;;16.53;96.25;99896.50;6371821;27;20051;-70
2023/06/15 05:08:37;;;;;;;8.73;2.38;;;;;;;16.48;95.96;99890.81;6373529;27;20510;-71
2023/06/15 05:11:38;;;;;;;3.78;2.40;;;;;;;16.56;95.42;99893.59;6373078;27;20074;-70
2023/06/15 05:14:39;;;;;;;5.28;2.90;;;;;;;16.63;94.81;99896.50;6371763;27;20047;-70
2023/06/15 05:17:42;;;;;;;5.32;2.47;;;;;;;16.76;94.90;99907.66;6371924;27;20544;-71
2023/06/15 05:20:43;;;;;;;7.93;2.70;;;;;;;16.94;94.40;99904.34;6372998;27;20047;-71
2023/06/15 05:23:43;;;;;;;4.68;3.05;;;;;;;17.14;92.37;99905.19;6371605;27;20096;-70
2023/06/15 05:26:44;;;;;;;5.22;2.60;;;;;;;17.34;90.81;99906.84;6371611;27;20117;-71
2023/06/15 05:29:46;;;;;;;4.40;2.47;;;;;;;17.40;91.04;99913.34;6372799;27;20138;-71
2023/06/15 05:32:46;;;;;;;4.32;2.03;;;;;;;17.52;88.92;99915.69;6371691;27;20096;-70
2023/06/15 05:35:47;;;;;;;5.68;2.50;;;;;;;17.51;87.96;99913.19;6371417;27;20047;-70
2023/06/15 05:38:48;;;;;;;4.18;2.92;;;;;;;17.67;88.20;99912.63;6371536;27;20050;-70
2023/06/15 05:41:49;;;;;;;5.53;3.00;;;;;;;17.90;86.16;99913.13;6372528;27;20184;-71
2023/06/15 05:44:49;;;;;;;4.55;2.70;;;;;;;18.01;86.83;99920.84;6371485;27;20039;-71
2023/06/15 05:47:50;;;;;;;5.53;2.95;;;;;;;18.20;86.58;99925.25;6371278;27;20126;-71
2023/06/15 05:50:51;;;;;;;8.45;2.90;;;;;;;18.37;86.31;99928.09;6371676;27;20043;-71
2023/06/15 05:53:52;;;;;;;5.13;2.97;;;;;;;18.33;85.00;99925.72;6371374;27;20085;-70
2023/06/15 05:56:52;;;;;;;3.15;2.33;;;;;;;18.41;85.21;99925.00;6371671;28;20095;-69
2023/06/15 05:59:53;;;;;;;6.70;2.50;;;;;;;18.69;82.22;99925.78;6371406;28;20055;-69
2023/06/15 06:02:54;;;;;;;5.07;2.88;;;;;;;18.76;83.02;99926.03;6372451;27;20057;-70
2023/06/15 06:05:55;;;;;;;4.13;2.28;;;;;;;18.88;79.47;99927.50;6371149;28;20076;-69
2023/06/15 06:19:51;;;;;;;3.67;2.38;;;;;;;19.58;80.47;99939.16;6420638;27;20110;-71
2023/06/15 06:22:52;;;;;;;3.40;2.13;;;;;;;19.86;77.09;99931.94;6420415;27;20129;-70
2023/06/15 06:25:53;;;;;;;5.33;2.63;;;;;;;20.20;73.10;99936.41;6402141;27;20541;-72
2023/06/15 06:28:55;;;;;;;3.93;2.50;;;;;;;20.20;72.67;99928.44;6420472;27;20042;-72
2023/06/15 06:31:56;;;;;;;9.30;2.10;;;;;;;20.36;69.44;99936.47;6401761;27;20106;-72
2023/06/15 06:34:57;;;;;;;4.90;2.33;;;;;;;20.83;69.70;99935.16;6420470;27;20042;-71
2023/06/15 06:38:00;;;;;;;3.13;2.40;;;;;;;20.98;70.37;99936.19;6401765;27;20038;-71
2023/06/15 06:41:00;;;;;;;2.80;2.17;;;;;;;20.90;67.50;99934.34;6401915;27;20113;-72
2023/06/15 06:44:06;;;;;;;5.00;2.37;;;;;;;21.03;64.25;99933.88;6420212;27;20047;-72
2023/06/15 06:47:06;;;;;;;4.15;2.28;;;;;;;21.16;68.69;99933.38;6401310;27;20049;-72
2023/06/15 06:50:07;;;;;;;5.57;2.50;;;;;;;21.29;69.72;99933.72;6401560;27;20047;-72
2023/06/15 06:53:08;;;;;;;3.57;2.53;;;;;;;21.58;66.04;99939.53;6419791;27;20076;-72
2023/06/15 06:56:09;;;;;;;2.23;1.87;;;;;;;21.68;65.62;99930.41;6419737;27;20493;-72
2023/06/15 06:59:10;;;;;;;3.03;1.80;;;;;;;21.57;67.06;99936.03;6419721;27;20051;-72
2023/06/15 07:02:12;;;;;;;4.63;2.20;;;;;;;21.70;65.19;99930.22;6419550;27;20183;-72
2023/06/15 07:05:15;;;;;;;2.70;1.92;;;;;;;21.67;64.31;99927.91;6400931;27;20050;-72
2023/06/15 07:08:16;;;;;;;4.63;2.17;;;;;;;22.00;63.10;99926.00;6401633;27;20049;-72
2023/06/15 07:11:17;;;;;;;5.95;2.47;;;;;;;22.13;64.42;99925.44;6400014;27;20046;-71
2023/06/15 07:14:19;;;;;;;3.03;1.70;;;;;;;22.06;64.57;99927.16;6400063;27;20093;-72
2023/06/15 07:17:20;;;;;;;4.07;1.90;;;;;;;21.76;62.44;99921.56;6399725;27;20058;-72
2023/06/15 07:20:21;;;;;;;2.83;1.90;;;;;;;21.84;62.27;99918.06;6384781;27;20042;-72
2023/06/15 07:23:25;;;;;;;2.83;1.77;;;;;;;22.37;60.83;99926.41;6401213;27;20490;-71
2023/06/15 07:26:26;;;;;;;3.03;1.90;;;;;;;22.46;60.82;99928.00;6401491;27;20082;-71
2023/06/15 07:29:27;;;;;;;4.47;2.20;;;;;;;22.88;60.78;99924.94;6401776;27;20520;-72
2023/06/15 07:32:28;;;;;;;4.03;2.13;;;;;;;23.30;60.58;99928.13;6401481;27;20101;-72
2023/06/15 07:35:29;;;;;;;3.17;2.10;;;;;;;23.46;59.14;99924.50;6383193;27;20125;-72
2023/06/15 07:38:32;;;;;;;2.00;1.80;;;;;;;23.62;53.26;99918.22;6382914;27;20050;-72
2023/06/15 07:41:33;;;;;;;4.63;2.10;;;;;;;23.47;56.44;99915.50;6381873;27;20387;-72
2023/06/15 07:44:36;;;;;;;3.03;1.77;;;;;;;23.01;55.50;99913.72;6401186;27;20133;-72
2023/06/15 07:47:37;;;;;;;2.53;1.90;;;;;;;23.91;60.57;99914.78;6382407;27;20478;-72
2023/06/15 07:50:38;;;;;;;2.28;1.75;;;;;;;23.93;54.63;99910.91;6382565;27;20453;-71
2023/06/15 07:53:39;;;;;;;3.67;2.10;;;;;;;24.07;52.40;99913.72;6400895;27;20049;-72
2023/06/15 07:56:42;;;;;;;3.07;1.93;;;;;;;24.36;50.69;99910.22;6382537;27;20057;-72
2023/06/15 07:59:43;;;;;;;2.30;1.98;;;;;;;24.33;49.55;99913.25;6400805;27;20134;-72
2023/06/15 08:02:43;;;;;;;1.90;1.70;;;;;;;24.70;48.22;99914.94;6382547;27;20051;-72
2023/06/15 08:05:47;;;;;;;3.03;1.80;;;;;;;24.76;49.46;99915.22;6400508;27;20053;-72
2023/06/15 08:08:49;;;;;;;2.15;1.60;;;;;;;24.65;51.92;99919.22;6400539;27;20046;-71
2023/06/15 08:11:50;;;;;;;2.47;1.73;;;;;;;24.85;50.88;99911.38;6400435;27;20057;-71
2023/06/15 08:14:51;;;;;;;2.33;1.60;;;;;;;24.94;45.60;99907.59;6382397;27;20046;-70
2023/06/15 08:17:51;;;;;;;3.20;1.80;;;;;;;25.03;50.45;99918.97;6400196;27;20186;-71
2023/06/15 08:20:52;;;;;;;3.73;1.97;;;;;;;24.93;49.35;99909.44;6400420;27;20042;-71
2023/06/15 08:23:55;;;;;;;3.57;1.77;;;;;;;25.37;45.93;99907.59;6381837;27;20047;-71
2023/06/15 08:27:00;;;;;;;2.92;1.95;;;;;;;25.13;46.52;99914.13;6381376;27;20298;-72
2023/06/15 08:30:01;;;;;;;3.30;2.05;;;;;;;25.19;47.64;99912.53;6399414;27;20051;-71
2023/06/15 08:33:01;;;;;;;3.43;1.80;;;;;;;25.33;46.39;99912.47;6399647;27;20054;-71
2023/06/15 08:36:02;;;;;;;3.47;1.80;;;;;;;25.28;46.99;99909.53;6381354;27;20051;-72
2023/06/15 08:39:08;;;;;;;2.75;1.67;;;;;;;25.26;46.43;99916.94;6399619;27;20065;-71
2023/06/15 08:42:12;;;;;;;2.47;1.73;;;;;;;25.83;45.08;99919.59;6381642;27;20088;-72
2023/06/15 08:45:13;;;;;;;3.50;1.90;;;;;;;25.58;46.67;99914.72;6381081;27;20054;-71
2023/06/15 08:48:16;;;;;;;3.00;1.70;;;;;;;26.16;45.21;99919.81;6399763;27;20519;-71
2023/06/15 08:51:17;;;;;;;3.58;1.80;;;;;;;25.78;45.62;99927.38;6399340;27;20125;-71
2023/06/15 08:54:21;;;;;;;2.40;1.67;;;;;;;25.57;46.08;99922.91;6380972;27;20042;-71
2023/06/15 08:57:22;;;;;;;2.47;1.90;;;;;;;24.91;45.74;99921.31;6381021;27;20255;-71
2023/06/15 09:00:25;;;;;;;2.38;1.88;;;;;;;23.78;46.16;99917.22;6380858;27;20129;-71
2023/06/15 09:03:26;;;;;;;2.42;1.70;;;;;;;23.91;50.93;99920.91;6399414;27;20050;-72
2023/06/15 09:06:27;;;;;;;3.43;2.10;;;;;;;24.70;45.17;99927.44;6398946;27;20047;-72
2023/06/15 09:09:29;;;;;;;5.03;2.00;;;;;;;25.39;46.37;99926.91;6399347;27;20051;-72
2023/06/15 09:12:30;;;;;;;2.25;1.70;;;;;;;25.00;46.47;99922.84;6399038;27;20046;-72
2023/06/15 09:15:31;;;;;;;2.50;1.87;;;;;;;24.99;45.89;99915.84;6380562;27;20051;-72
2023/06/15 09:18:51;;;;;;;2.53;1.75;;;;;;;25.43;45.82;99917.50;6371666;27;20051;-72
2023/06/15 09:21:53;;;;;;;2.67;1.73;;;;;;;25.97;48.34;99909.84;6373141;27;20070;-73
2023/06/15 09:24:57;;;;;;;4.43;2.13;;;;;;;26.11;44.05;99909.72;6373006;27;20410;-72
2023/06/15 09:27:59;;;;;;;3.15;1.35;;;;;;;25.40;45.88;99907.19;6373124;27;20043;-73
2023/06/15 09:31:00;;;;;;;2.20;1.85;;;;;;;25.67;45.46;99896.69;6371758;27;20444;-72
2023/06/15 09:34:09;;;;;;;2.70;1.80;;;;;;;25.28;45.36;99903.38;6372022;27;20057;-72
2023/06/15 09:37:19;;;;;;;2.75;1.73;;;;;;;25.78;46.34;99901.50;6371590;27;20047;-72
2023/06/15 09:40:20;;;;;;;2.70;1.80;;;;;;;26.13;44.67;99901.50;6371483;27;20047;-72
2023/06/15 09:43:23;;;;;;;4.27;1.40;;;;;;;26.43;42.83;99904.69;6371528;27;20100;-72
2023/06/15 09:46:28;;;;;;;4.43;1.70;;;;;;;26.37;42.25;99894.78;6372514;27;20521;-72
2023/06/15 09:49:28;;;;;;;3.42;2.00;;;;;;;26.30;45.43;99899.31;6372779;27;20058;-72
2023/06/15 09:52:31;;;;;;;6.50;1.90;;;;;;;25.98;43.63;99890.94;6371414;27;20402;-72
2023/06/15 09:55:34;;;;;;;2.95;1.50;;;;;;;27.29;41.76;99887.19;6372610;27;20055;-70
2023/06/15 09:58:35;;;;;;;3.30;1.80;;;;;;;27.02;44.49;99887.13;6371233;27;20051;-70
2023/06/15 10:01:37;;;;;;;3.27;2.07;;;;;;;26.89;41.39;99879.09;6371285;27;20546;-71
2023/06/15 10:04:40;;;;;;;2.53;1.95;;;;;;;26.91;40.87;99875.19;6372490;27;20350;-72
2023/06/15 10:07:48;;;;;;;2.30;1.67;;;;;;;26.48;41.08;99890.69;6372287;27;20071;-72
2023/06/15 10:10:51;;;;;;;2.63;1.80;;;;;;;26.22;40.79;99881.59;6371397;28;20047;-71
2023/06/15 10:14:02;;;;;;;2.17;1.52;;;;;;;26.39;38.82;99881.22;6371618;28;20058;-72
2023/06/15 10:17:06;;;;;;;5.80;1.80;;;;;;;26.46;39.16;99890.06;6373774;27;20050;-71
2023/06/15 10:20:17;;;;;;;2.58;1.73;;;;;;;26.50;39.52;99878.81;6379863;27;20058;-71
2023/06/15 10:23:29;;;;;;;;;;;;;;;26.94;38.54;99871.28;6398554;27;20093;-71
2023/06/15 10:26:30;;;;;;;2.78;1.90;;;;;;;27.64;38.16;99874.34;6379810;27;19966;-71
2023/06/15 10:29:53;;;;;;;2.17;1.60;;;;;;;27.99;37.39;99876.75;6379777;27;20051;-69
2023/06/15 10:33:12;;;;;;;2.00;1.73;;;;;;;28.27;38.49;99878.28;6397885;27;20401;-69
2023/06/15 10:36:29;;;;;;;2.42;1.80;;;;;;;27.55;37.52;99870.25;6379444;27;20089;-69
2023/06/15 10:39:39;;;;;;;2.55;1.85;;;;;;;27.98;38.95;99872.41;6397790;27;20103;-69
2023/06/15 10:42:44;;;;;;;7.25;1.90;;;;;;;28.36;40.37;99870.81;6398313;27;20553;-69
2023/06/15 10:45:46;;;;;;;3.33;1.48;;;;;;;27.54;38.81;99868.59;6378772;27;20047;-69
2023/06/15 10:48:54;;;;;;;3.33;1.80;;;;;;;27.51;38.38;99872.53;6397594;27;20108;-70
2023/06/15 10:51:56;;;;;;;2.97;1.85;;;;;;;26.84;38.34;99873.53;6379260;27;20049;-69
2023/06/15 10:54:58;;;;;;;2.15;1.70;;;;;;;27.74;38.85;99864.00;6400380;27;20047;-70
2023/06/15 10:58:15;;;;;;;2.88;1.85;;;;;;;27.45;38.19;99862.63;6384012;27;20409;-71
2023/06/15 11:01:22;;;;;;;2.22;1.77;;;;;;;27.51;37.08;99859.13;6383941;27;20042;-72
2023/06/15 11:04:30;;;;;;;3.88;1.85;;;;;;;28.37;41.44;99857.16;6383998;27;20051;-71
2023/06/15 11:07:45;;;;;;;3.08;2.00;;;;;;;28.33;42.78;99850.59;6383541;27;20043;-69
2023/06/15 11:10:46;;;;;;;3.65;1.90;;;;;;;28.17;39.57;99853.75;6402340;27;20054;-69
2023/06/15 11:14:02;;;;;;;;;;;;;;;28.11;39.44;99855.47;6402562;27;20042;-69
2023/06/15 11:17:06;;;;;;;3.15;1.75;;;;;;;27.88;40.27;99845.22;6401990;27;19929;-69
2023/06/15 11:20:39;;;;;;;4.00;1.77;;;;;;;28.28;38.92;99853.09;6402009;27;20484;-69
2023/06/15 11:23:45;;;;;;;2.53;1.70;;;;;;;28.01;36.98;99847.88;6383488;27;20051;-69
2023/06/15 11:39:44;;;;;;;1.95;1.75;;;;;;;27.39;39.41;99844.72;6369501;27;20380;-70
2023/06/15 11:42:45;;;;;;;3.47;2.05;;;;;;;27.39;40.48;99842.03;6368131;28;20048;-72
2023/06/15 11:45:49;;;;;;;3.70;1.95;;;;;;;27.25;39.98;99846.59;6368962;27;20051;-73
2023/06/15 11:48:57;;;;;;;2.88;1.75;;;;;;;27.66;40.08;99828.59;6367729;28;20047;-73
2023/06/15 11:51:58;;;;;;;2.35;1.67;;;;;;;26.90;39.33;99832.56;6369024;27;20051;-72
2023/06/15 11:55:11;;;;;;;2.83;1.90;;;;;;;27.57;41.54;99830.66;6367784;28;20054;-72
2023/06/15 11:58:12;;;;;;;2.92;1.60;;;;;;;28.03;40.08;99828.88;6367474;28;20047;-69
2023/06/15 12:01:15;;;;;;;2.03;1.70;;;;;;;28.01;39.86;99820.25;6368699;27;20109;-72
2023/06/15 12:04:16;;;;;;;3.78;1.75;;;;;;;27.54;40.04;99823.84;6368413;27;20121;-72
2023/06/15 12:07:17;;;;;;;2.35;2.00;;;;;;;27.59;38.82;99823.22;6367302;28;20047;-72
2023/06/15 12:10:18;;;;;;;4.47;1.90;;;;;;;27.60;42.30;99810.66;6367263;28;20066;-72
2023/06/15 12:13:21;;;;;;;2.72;1.75;;;;;;;27.03;41.17;99810.31;6368418;27;20043;-69
2023/06/15 12:16:23;;;;;;;2.85;1.98;;;;;;;27.43;39.94;99819.16;6368363;27;20047;-70
2023/06/15 12:19:23;;;;;;;2.92;1.65;;;;;;;27.80;39.33;99810.56;6368158;27;20428;-72
2023/06/15 12:22:44;;;;;;;7.28;2.17;;;;;;;27.46;38.23;99808.00;6367323;28;20536;-69
2023/06/15 12:25:49;;;;;;;2.00;1.77;;;;;;;27.65;38.38;99808.16;6367968;27;20101;-70
2023/06/15 12:28:52;;;;;;;3.63;2.00;;;;;;;27.89;38.96;99812.03;6368132;27;20497;-70
2023/06/15 12:31:57;;;;;;;2.33;1.77;;;;;;;27.80;38.19;99807.91;6367913;27;20055;-70
2023/06/15 12:34:58;;;;;;;2.58;1.80;;;;;;;27.83;39.28;99805.63;6367898;27;20047;-69
2023/06/15 12:37:59;;;;;;;2.40;1.85;;;;;;;27.74;38.51;99796.19;6364798;28;20086;-70
2023/06/15 12:41:00;;;;;;;2.70;1.92;;;;;;;27.78;40.79;99793.88;6350786;28;20058;-69
2023/06/15 12:44:00;;;;;;;3.08;1.80;;;;;;;27.24;38.38;99783.34;6350556;28;20434;-70
2023/06/15 12:47:01;;;;;;;2.42;1.92;;;;;;;26.85;39.17;99776.97;6349455;28;20558;-70
2023/06/15 12:50:02;;;;;;;3.10;2.10;;;;;;;27.28;39.48;99773.03;6350597;28;20056;-70
2023/06/15 12:53:03;;;;;;;2.60;1.70;;;;;;;27.76;41.26;99775.34;6349244;28;20105;-69
2023/06/15 12:56:05;;;;;;;2.92;1.70;;;;;;;27.68;39.53;99764.88;6349259;28;20547;-70
2023/06/15 12:59:06;;;;;;;4.78;1.85;;;;;;;27.03;40.34;99770.16;6350262;28;20046;-69
2023/06/15 13:02:07;;;;;;;4.90;2.00;;;;;;;26.72;39.50;99768.94;6349265;28;20056;-72
2023/06/15 13:05:09;;;;;;;3.80;2.03;;;;;;;27.34;39.56;99772.19;6349009;28;20051;-72
2023/06/15 13:08:11;;;;;;;3.53;1.92;;;;;;;26.51;39.83;99772.63;6348987;28;20036;-72
2023/06/15 13:11:12;;;;;;;3.78;2.17;;;;;;;26.70;41.46;99774.50;6349951;28;20082;-72
2023/06/15 13:14:12;;;;;;;3.25;1.85;;;;;;;26.97;40.21;99763.78;6349856;28;20407;-69
2023/06/15 13:17:13;;;;;;;4.22;1.80;;;;;;;26.87;39.30;99763.38;6349770;28;20044;-72
2023/06/15 13:20:14;;;;;;;4.53;1.77;;;;;;;27.21;39.11;99767.66;6348648;28;20047;-72
2023/06/15 13:23:15;;;;;;;2.05;1.70;;;;;;;27.23;39.76;99762.13;6349811;28;20280;-72
2023/06/15 13:26:15;;;;;;;4.53;1.97;;;;;;;27.39;38.73;99752.81;6349487;28;20410;-72
2023/06/15 13:29:16;;;;;;;1.92;1.42;;;;;;;27.37;39.25;99760.25;6348584;28;20260;-69
2023/06/15 13:32:18;;;;;;;2.00;1.70;;;;;;;27.62;37.48;99763.03;6348234;28;20111;-70
2023/06/15 13:35:18;;;;;;;;;;;;;;;27.65;39.14;99762.59;6349947;28;20048;-70
2023/06/15 13:38:19;;;;;;;2.50;1.80;;;;;;;27.52;37.32;99758.94;6348165;28;19970;-70
2023/06/15 13:41:20;;;;;;;2.15;1.67;;;;;;;27.70;38.17;99757.44;6348284;28;20139;-71
2023/06/15 13:44:21;;;;;;;4.18;1.73;;;;;;;27.69;38.61;99756.59;6349208;28;20047;-72
2023/06/15 13:47:21;;;;;;;4.17;1.83;;;;;;;26.73;35.53;99749.19;6348102;28;20096;-72
2023/06/15 13:50:22;;;;;;;1.85;1.40;;;;;;;27.47;36.27;99750.72;6348191;28;20272;-73
2023/06/15 13:53:23;;;;;;;3.55;1.80;;;;;;;27.16;36.48;99742.53;6348172;28;20047;-72
2023/06/15 13:56:24;;;;;;;6.77;1.60;;;;;;;27.28;37.12;99744.41;6347926;28;20457;-71
2023/06/15 13:59:30;;;;;;;2.63;1.70;;;;;;;27.46;37.87;99741.03;6347646;28;20050;-70
2023/06/15 14:02:31;;;;;;;2.78;1.60;;;;;;;26.88;38.08;99741.75;6348968;28;20087;-69
2023/06/15 14:05:32;;;;;;;3.08;1.77;;;;;;;26.94;38.88;99738.25;6347509;28;20047;-69
2023/06/15 14:08:33;;;;;;;1.55;1.40;;;;;;;26.48;38.51;99738.22;6347347;28;20050;-73
2023/06/15 14:11:36;;;;;;;5.47;1.60;;;;;;;26.65;38.45;99730.66;6347325;28;20487;-73
2023/06/15 14:14:37;;;;;;;2.72;1.65;;;;;;;26.31;38.82;99727.94;6346908;28;20130;-72
2023/06/15 14:17:38;;;;;;;2.60;1.85;;;;;;;26.11;39.45;99724.44;6347141;28;20585;-72
2023/06/15 14:20:39;;;;;;;2.00;1.80;;;;;;;26.03;41.08;99732.66;6348363;28;20052;-71
2023/06/15 14:23:40;;;;;;;1.60;1.47;;;;;;;26.67;41.55;99721.41;6348204;28;20501;-72
2023/06/15 14:26:41;;;;;;;3.30;2.28;;;;;;;27.10;40.52;99718.25;6348003;28;20296;-72
2023/06/15 14:29:45;;;;;;;1.98;1.40;;;;;;;26.12;39.13;99718.03;6347140;28;20052;-72
2023/06/15 14:32:46;;;;;;;1.95;1.50;;;;;;;26.59;40.37;99715.44;6347909;28;20495;-73
2023/06/15 14:35:47;;;;;;;3.85;2.05;;;;;;;26.56;39.77;99716.63;6347983;28;20051;-72
2023/06/15 14:38:47;;;;;;;3.03;2.38;;;;;;;26.61;41.07;99711.53;6347661;28;20048;-73
2023/06/15 14:41:48;;;;;;;3.17;2.00;;;;;;;26.59;39.68;99710.09;6346645;28;20491;-71